Time;durP1;ratioP1;P1;durP2;ratioP2;P2;SDS_P1;SDS_P2;PMS_P1;PMS_P2;Temp;Humidity;BMP_temperature;BMP_pressure;BME280_temperature;BME280_humidity;BME280_pressure;Samples;Min_cycle;Max_cycle;Signal;HPM_P1;HPM_P2
2023/09/29 00:00:17;;;;;;;8.93;7.80;;;;;;;15.47;100.00;100306.41;5046698;28;20548;-63
2023/09/29 00:02:45;;;;;;;8.30;7.50;;;;;;;15.43;100.00;100298.94;5056446;28;20186;-63
2023/09/29 00:05:11;;;;;;;8.93;8.07;;;;;;;15.28;100.00;100303.47;5053649;28;20252;-63
2023/09/29 00:07:39;;;;;;;10.10;8.07;;;;;;;15.19;100.00;100302.38;5053553;28;20250;-63
2023/09/29 00:10:10;;;;;;;10.23;8.20;;;;;;;15.12;100.00;100294.22;5045161;28;20227;-64
2023/09/29 00:12:39;;;;;;;10.17;8.20;;;;;;;15.06;100.00;100292.06;5068637;28;20280;-63
2023/09/29 00:15:06;;;;;;;9.03;8.13;;;;;;;15.01;100.00;100289.78;5050207;28;20669;-63
2023/09/29 00:17:31;;;;;;;9.10;7.53;;;;;;;14.97;100.00;100290.94;5050711;28;20261;-63
2023/09/29 00:19:57;;;;;;;8.60;7.73;;;;;;;14.97;100.00;100282.31;5054847;28;20640;-63
2023/09/29 00:22:23;;;;;;;10.53;7.73;;;;;;;14.96;100.00;100291.88;5059480;28;20237;-63
2023/09/29 00:24:48;;;;;;;9.27;7.70;;;;;;;14.91;100.00;100285.34;5054405;28;20286;-62
2023/09/29 00:27:13;;;;;;;7.93;7.13;;;;;;;14.91;100.00;100285.34;5054761;28;20185;-62
2023/09/29 00:29:39;;;;;;;14.67;8.23;;;;;;;14.90;100.00;100294.06;5054578;28;20571;-62
2023/09/29 00:32:05;;;;;;;9.17;7.93;;;;;;;14.96;100.00;100286.69;5042292;28;20217;-62
2023/09/29 00:34:30;;;;;;;8.63;7.73;;;;;;;15.02;100.00;100280.25;5033936;28;20202;-63
2023/09/29 00:36:56;;;;;;;11.27;8.37;;;;;;;15.04;100.00;100283.53;5034679;28;20591;-62
2023/09/29 00:39:21;;;;;;;9.60;8.33;;;;;;;15.00;100.00;100277.75;5034164;28;20248;-63
2023/09/29 00:41:49;;;;;;;11.50;8.13;;;;;;;14.92;100.00;100267.13;5042487;28;20334;-62
2023/09/29 00:44:14;;;;;;;13.73;9.53;;;;;;;14.88;100.00;100260.47;5034095;28;20264;-62
2023/09/29 00:46:39;;;;;;;12.60;8.20;;;;;;;14.95;100.00;100263.50;5034550;28;20213;-62
2023/09/29 00:49:05;;;;;;;8.40;7.60;;;;;;;14.99;100.00;100262.31;5034178;28;20250;-62
2023/09/29 00:51:31;;;;;;;10.07;8.00;;;;;;;15.05;100.00;100263.66;5047568;28;20242;-63
2023/09/29 00:53:57;;;;;;;11.00;8.87;;;;;;;15.04;100.00;100264.59;5052854;28;20197;-63
2023/09/29 00:56:23;;;;;;;9.70;8.10;;;;;;;15.03;100.00;100273.31;5022201;28;20186;-63
2023/09/29 00:58:49;;;;;;;10.77;7.60;;;;;;;14.97;100.00;100270.22;5047063;28;20591;-62
2023/09/29 01:01:15;;;;;;;8.97;7.83;;;;;;;14.91;100.00;100272.38;5043733;28;20228;-63
2023/09/29 01:03:40;;;;;;;8.43;7.53;;;;;;;14.94;100.00;100275.59;5054379;28;20582;-63
2023/09/29 01:06:08;;;;;;;8.93;8.13;;;;;;;15.03;100.00;100287.06;5043871;28;20173;-64
2023/09/29 01:08:36;;;;;;;8.73;7.93;;;;;;;15.04;100.00;100283.53;5035177;28;20645;-62
2023/09/29 01:11:05;;;;;;;10.87;9.10;;;;;;;15.05;100.00;100290.38;5028927;28;20299;-63
2023/09/29 01:13:31;;;;;;;11.47;10.37;;;;;;;14.82;100.00;100289.41;5042244;28;20190;-63
2023/09/29 01:15:58;;;;;;;12.40;9.77;;;;;;;14.82;100.00;100285.06;5033393;28;20221;-63
2023/09/29 01:18:23;;;;;;;11.27;9.50;;;;;;;14.90;100.00;100291.47;5049095;28;20194;-62
2023/09/29 01:20:48;;;;;;;11.23;10.23;;;;;;;14.92;100.00;100284.41;5029003;28;20303;-63
2023/09/29 01:23:14;;;;;;;10.63;9.57;;;;;;;14.85;100.00;100281.44;5031505;28;20221;-63
2023/09/29 01:25:40;;;;;;;46.67;17.57;;;;;;;14.78;100.00;100280.19;5028603;28;20237;-63
2023/09/29 01:28:07;;;;;;;11.50;10.30;;;;;;;14.75;100.00;100272.63;5024397;28;20640;-63
2023/09/29 01:30:33;;;;;;;12.30;11.10;;;;;;;14.81;100.00;100277.38;5026524;28;20712;-63
2023/09/29 01:32:59;;;;;;;12.33;11.30;;;;;;;14.82;100.00;100279.88;5043572;28;20197;-64
2023/09/29 01:35:25;;;;;;;12.33;11.03;;;;;;;14.83;100.00;100270.34;5033067;28;20273;-63
2023/09/29 01:37:51;;;;;;;12.70;11.40;;;;;;;14.83;100.00;100266.00;5033085;28;20270;-63
2023/09/29 01:40:17;;;;;;;11.60;10.53;;;;;;;14.78;100.00;100264.66;5023922;28;20265;-63
2023/09/29 01:42:44;;;;;;;13.07;11.53;;;;;;;14.64;100.00;100268.19;5044151;28;20236;-63
2023/09/29 01:45:16;;;;;;;12.83;11.07;;;;;;;14.56;100.00;100268.69;5031960;28;20186;-63
2023/09/29 01:47:44;;;;;;;11.60;10.40;;;;;;;14.64;100.00;100263.81;5031775;28;20296;-63
2023/09/29 01:50:16;;;;;;;12.10;11.03;;;;;;;14.71;100.00;100263.44;5020316;28;20202;-63
2023/09/29 01:52:43;;;;;;;11.43;10.33;;;;;;;14.73;100.00;100256.38;5060193;28;20177;-64
2023/09/29 01:55:09;;;;;;;12.57;10.63;;;;;;;14.76;100.00;100251.81;5048697;28;20201;-63
2023/09/29 01:57:34;;;;;;;13.20;11.03;;;;;;;14.87;100.00;100250.25;5050399;28;20188;-63
2023/09/29 02:00:00;;;;;;;12.07;10.90;;;;;;;14.79;100.00;100245.59;5048861;28;20186;-62
2023/09/29 02:02:25;;;;;;;11.50;10.40;;;;;;;14.79;100.00;100241.25;5039717;28;20236;-64
2023/09/29 02:04:52;;;;;;;12.07;10.97;;;;;;;14.77;100.00;100243.13;5043383;28;20220;-62
2023/09/29 02:07:17;;;;;;;11.10;10.00;;;;;;;14.75;100.00;100247.56;5045060;28;20189;-64
2023/09/29 02:09:43;;;;;;;10.93;9.80;;;;;;;14.88;100.00;100250.13;5048613;28;20336;-63
2023/09/29 02:12:09;;;;;;;18.20;16.37;;;;;;;14.91;100.00;100249.91;5056609;28;20289;-63
2023/09/29 02:14:35;;;;;;;12.43;11.27;;;;;;;15.05;100.00;100251.53;5032909;28;20285;-63
2023/09/29 02:17:00;;;;;;;11.97;10.67;;;;;;;15.20;100.00;100257.38;5032957;28;20324;-63
2023/09/29 02:19:25;;;;;;;10.27;9.23;;;;;;;15.06;100.00;100257.53;5033022;28;20186;-63
2023/09/29 02:21:51;;;;;;;10.70;8.90;;;;;;;15.24;100.00;100264.00;5024367;28;20325;-63
2023/09/29 02:24:16;;;;;;;10.17;9.27;;;;;;;15.35;100.00;100265.00;5039896;28;20192;-63
2023/09/29 02:26:41;;;;;;;11.53;9.50;;;;;;;15.42;100.00;100274.00;5041125;28;20532;-63
2023/09/29 02:29:11;;;;;;;12.70;9.50;;;;;;;15.49;100.00;100277.78;5039618;28;20181;-64
2023/09/29 02:31:36;;;;;;;10.67;9.33;;;;;;;15.45;100.00;100278.94;5039045;28;20220;-65
2023/09/29 02:34:02;;;;;;;11.83;9.73;;;;;;;15.56;100.00;100271.22;5064548;28;20185;-63
2023/09/29 02:36:27;;;;;;;9.80;8.80;;;;;;;15.63;100.00;100280.19;5052295;28;20200;-63
2023/09/29 02:38:53;;;;;;;9.43;8.53;;;;;;;15.59;100.00;100275.34;5036097;28;20638;-63
2023/09/29 02:41:20;;;;;;;11.37;7.93;;;;;;;15.61;100.00;100276.06;5034187;28;20286;-63
2023/09/29 02:43:46;;;;;;;9.97;8.70;;;;;;;15.68;100.00;100268.66;5055939;28;20191;-63
2023/09/29 02:46:15;;;;;;;9.20;8.17;;;;;;;15.68;100.00;100256.53;5051932;28;20551;-63
2023/09/29 02:48:41;;;;;;;11.67;8.47;;;;;;;15.56;100.00;100267.81;5047115;28;20279;-63
2023/09/29 02:51:15;;;;;;;8.83;8.03;;;;;;;15.50;100.00;100261.28;5054872;28;20236;-62
2023/09/29 02:53:41;;;;;;;8.50;7.70;;;;;;;15.59;100.00;100259.78;5046399;28;20251;-63
2023/09/29 02:56:11;;;;;;;9.90;8.20;;;;;;;15.48;100.00;100258.81;5040219;28;20292;-63
2023/09/29 02:58:40;;;;;;;9.33;8.40;;;;;;;15.52;100.00;100254.25;5042633;28;20193;-63
2023/09/29 03:01:12;;;;;;;10.87;7.83;;;;;;;15.59;100.00;100252.00;5046126;28;20228;-63
2023/09/29 03:03:43;;;;;;;8.87;7.17;;;;;;;15.78;100.00;100251.50;5066578;28;20216;-64
2023/09/29 03:06:18;;;;;;;8.93;8.00;;;;;;;15.82;100.00;100251.16;5048574;28;20177;-64
2023/09/29 03:08:43;;;;;;;11.63;7.47;;;;;;;15.98;100.00;100252.63;5060039;28;20593;-63
2023/09/29 03:11:09;;;;;;;8.73;7.77;;;;;;;16.04;100.00;100249.56;5043897;28;20220;-64
2023/09/29 03:13:40;;;;;;;14.20;8.00;;;;;;;16.01;100.00;100249.78;5046794;28;20648;-64
2023/09/29 03:16:07;;;;;;;8.47;7.27;;;;;;;16.10;100.00;100246.53;5037032;28;20197;-64
2023/09/29 03:18:36;;;;;;;8.60;7.70;;;;;;;15.97;100.00;100251.78;5079033;28;20184;-64
2023/09/29 03:21:04;;;;;;;9.13;7.57;;;;;;;15.85;100.00;100244.09;5053928;28;20270;-63
2023/09/29 03:23:30;;;;;;;9.33;7.60;;;;;;;15.92;100.00;100240.94;5063531;28;20332;-64
2023/09/29 03:25:56;;;;;;;9.63;7.67;;;;;;;15.98;100.00;100250.03;5049952;28;20198;-63
2023/09/29 03:28:21;;;;;;;9.13;7.60;;;;;;;16.00;100.00;100247.31;5051567;28;20304;-63
2023/09/29 03:30:46;;;;;;;8.10;7.07;;;;;;;16.05;100.00;100256.44;5008705;28;20962;-63
2023/09/29 03:33:13;;;;;;;7.97;6.83;;;;;;;16.12;100.00;100238.63;5041081;28;20217;-63
2023/09/29 03:35:40;;;;;;;8.17;6.83;;;;;;;16.16;100.00;100241.81;5052223;28;20236;-64
2023/09/29 03:38:05;;;;;;;8.67;7.77;;;;;;;16.10;100.00;100235.28;5066687;28;20164;-63
2023/09/29 03:40:31;;;;;;;11.73;7.40;;;;;;;16.14;100.00;100239.34;5056372;28;20225;-63
2023/09/29 03:42:57;;;;;;;7.90;7.10;;;;;;;16.11;100.00;100243.00;5036407;28;20165;-63
2023/09/29 03:45:23;;;;;;;8.53;7.00;;;;;;;16.05;100.00;100248.63;5049951;28;20235;-64
2023/09/29 03:47:48;;;;;;;7.87;7.13;;;;;;;16.09;100.00;100254.44;5037534;28;20211;-64
2023/09/29 03:50:13;;;;;;;7.97;7.13;;;;;;;16.00;100.00;100266.31;5030347;28;20213;-64
2023/09/29 03:52:39;;;;;;;7.40;6.73;;;;;;;16.07;100.00;100264.09;5029335;28;20181;-64
2023/09/29 03:55:06;;;;;;;9.50;7.13;;;;;;;16.07;100.00;100261.50;5046327;28;20201;-63
2023/09/29 03:57:32;;;;;;;8.40;7.10;;;;;;;15.98;100.00;100261.22;5031115;28;20178;-63
2023/09/29 03:59:57;;;;;;;8.37;7.03;;;;;;;15.96;100.00;100264.88;5031139;28;20287;-63
2023/09/29 04:02:22;;;;;;;8.40;6.83;;;;;;;15.97;100.00;100269.13;5037884;28;20270;-64
2023/09/29 04:04:48;;;;;;;9.27;7.10;;;;;;;16.01;100.00;100265.34;5049130;28;20192;-65
2023/09/29 04:07:15;;;;;;;8.50;7.17;;;;;;;15.98;100.00;100261.22;5050408;28;20197;-64
2023/09/29 04:09:40;;;;;;;9.40;7.43;;;;;;;15.74;100.00;100255.25;5037412;28;20185;-63
2023/09/29 04:12:06;;;;;;;10.30;7.23;;;;;;;15.84;100.00;100258.00;5039181;28;20312;-64
2023/09/29 04:14:31;;;;;;;8.90;7.43;;;;;;;15.88;100.00;100257.69;5039004;28;20202;-63
2023/09/29 04:16:56;;;;;;;7.47;6.77;;;;;;;15.96;100.00;100263.13;5031320;28;20174;-63
2023/09/29 04:19:21;;;;;;;13.13;7.60;;;;;;;15.99;100.00;100264.66;5031342;28;20186;-62
2023/09/29 04:21:47;;;;;;;8.03;7.33;;;;;;;16.04;100.00;100266.91;5037983;28;20232;-63
2023/09/29 04:24:12;;;;;;;10.90;7.00;;;;;;;15.98;100.00;100273.38;5032998;28;20194;-64
2023/09/29 04:26:38;;;;;;;9.00;6.87;;;;;;;15.92;100.00;100269.47;5031303;28;20555;-63
2023/09/29 04:29:03;;;;;;;8.07;6.87;;;;;;;16.01;100.00;100273.16;5031291;28;20189;-64
2023/09/29 04:31:28;;;;;;;8.77;7.63;;;;;;;16.05;100.00;100272.00;5043712;28;20286;-64
2023/09/29 04:33:53;;;;;;;8.70;7.50;;;;;;;16.07;100.00;100270.09;5080994;28;20690;-63
2023/09/29 04:36:19;;;;;;;8.37;7.57;;;;;;;16.09;100.00;100265.63;5056314;28;20182;-63
2023/09/29 04:38:45;;;;;;;7.77;7.00;;;;;;;16.09;100.00;100278.59;5054313;28;20235;-63
2023/09/29 04:41:11;;;;;;;8.90;8.10;;;;;;;15.96;100.00;100265.72;5053806;28;20224;-63
2023/09/29 04:43:36;;;;;;;9.60;8.40;;;;;;;15.65;100.00;100261.94;5059704;28;20178;-66
2023/09/29 04:46:02;;;;;;;12.77;7.40;;;;;;;15.65;100.00;100260.19;5063841;28;20178;-62
2023/09/29 04:48:27;;;;;;;11.70;7.40;;;;;;;15.68;100.00;100264.31;5054289;28;20187;-62
2023/09/29 04:50:54;;;;;;;8.87;7.50;;;;;;;15.71;100.00;100264.06;5050084;28;20231;-62
2023/09/29 04:53:19;;;;;;;8.23;7.43;;;;;;;15.76;100.00;100261.97;5068599;28;20177;-63
2023/09/29 04:55:45;;;;;;;10.00;6.77;;;;;;;15.84;100.00;100261.44;5058287;28;20208;-63
2023/09/29 04:58:10;;;;;;;10.40;7.73;;;;;;;15.90;100.00;100250.63;5074172;28;20184;-63
2023/09/29 05:00:36;;;;;;;10.97;7.73;;;;;;;15.81;100.00;100253.84;5062650;28;20255;-64
2023/09/29 05:03:01;;;;;;;8.57;7.57;;;;;;;15.84;100.00;100260.59;5054212;28;20196;-62
2023/09/29 05:05:27;;;;;;;10.23;7.50;;;;;;;15.87;100.00;100261.22;5069914;28;20181;-62
2023/09/29 05:07:52;;;;;;;10.13;7.83;;;;;;;15.90;100.00;100271.38;5072507;28;20180;-63
2023/09/29 05:10:19;;;;;;;11.57;8.77;;;;;;;15.85;100.00;100267.44;5054691;28;20197;-63
2023/09/29 05:12:45;;;;;;;11.93;8.90;;;;;;;15.84;100.00;100266.63;5071350;28;20200;-62
2023/09/29 05:15:10;;;;;;;9.37;8.47;;;;;;;15.81;100.00;100266.81;5060858;28;20560;-64
2023/09/29 05:17:36;;;;;;;8.60;7.70;;;;;;;15.86;100.00;100269.09;5057424;28;20610;-63
2023/09/29 05:20:02;;;;;;;8.83;8.03;;;;;;;15.88;100.00;100268.06;5053083;28;20243;-63
2023/09/29 05:22:27;;;;;;;9.67;8.30;;;;;;;15.92;100.00;100279.84;5041237;28;20344;-64
2023/09/29 05:24:53;;;;;;;9.60;8.17;;;;;;;15.96;100.00;100278.69;5053205;28;20267;-64
2023/09/29 05:27:19;;;;;;;11.97;8.20;;;;;;;15.97;100.00;100277.72;5068954;28;20678;-63
2023/09/29 05:29:45;;;;;;;9.00;8.10;;;;;;;16.01;100.00;100280.13;5072580;28;20188;-63
2023/09/29 05:32:10;;;;;;;11.83;7.93;;;;;;;16.01;100.00;100278.34;5043472;28;20229;-63
2023/09/29 05:34:35;;;;;;;12.50;7.97;;;;;;;16.04;100.00;100279.88;5051750;28;20266;-63
2023/09/29 05:37:01;;;;;;;8.60;7.43;;;;;;;16.00;100.00;100281.91;5041522;28;20224;-64
2023/09/29 05:39:27;;;;;;;11.90;7.83;;;;;;;16.04;100.00;100293.69;5052872;28;20173;-63
2023/09/29 05:41:52;;;;;;;10.00;7.67;;;;;;;16.11;100.00;100287.09;5047975;28;20228;-63
2023/09/29 05:44:17;;;;;;;14.67;8.60;;;;;;;16.03;100.00;100289.44;5048462;28;20197;-62
2023/09/29 05:46:42;;;;;;;11.30;7.77;;;;;;;15.97;100.00;100274.31;5033299;28;20186;-62
2023/09/29 05:49:09;;;;;;;13.77;9.17;;;;;;;15.98;100.00;100279.38;5033687;28;20638;-63
2023/09/29 05:51:35;;;;;;;9.40;7.67;;;;;;;16.04;100.00;100270.34;5024848;28;20296;-63
2023/09/29 05:54:02;;;;;;;9.60;7.47;;;;;;;15.93;100.00;100271.13;5036290;28;20272;-65
2023/09/29 05:56:29;;;;;;;9.00;7.87;;;;;;;16.03;100.00;100267.88;5032988;28;20178;-65
2023/09/29 05:58:55;;;;;;;11.80;7.50;;;;;;;16.12;100.00;100283.56;5033368;28;20193;-64
2023/09/29 06:01:20;;;;;;;11.40;8.20;;;;;;;16.22;100.00;100282.88;5022138;28;20328;-64
2023/09/29 06:03:45;;;;;;;10.63;7.60;;;;;;;16.33;100.00;100276.88;5031698;28;20182;-64
2023/09/29 06:06:11;;;;;;;11.57;8.33;;;;;;;16.52;100.00;100276.28;5032391;28;20189;-64
2023/09/29 06:08:37;;;;;;;12.67;8.93;;;;;;;16.53;100.00;100264.94;5032615;28;20190;-64
2023/09/29 06:11:03;;;;;;;11.60;8.40;;;;;;;16.67;100.00;100262.13;5010012;28;20222;-64
2023/09/29 06:13:28;;;;;;;9.67;8.47;;;;;;;16.70;100.00;100261.88;5048458;28;20182;-64
2023/09/29 06:15:56;;;;;;;9.67;8.50;;;;;;;16.91;100.00;100268.94;5047490;28;20564;-65
2023/09/29 06:18:21;;;;;;;12.20;8.27;;;;;;;17.10;100.00;100263.13;5050669;28;20196;-64
2023/09/29 06:20:46;;;;;;;13.83;9.17;;;;;;;17.33;100.00;100276.91;5035736;28;20652;-64
2023/09/29 06:23:11;;;;;;;10.30;8.83;;;;;;;17.68;100.00;100295.81;5050614;28;20348;-64
2023/09/29 06:25:37;;;;;;;11.70;8.50;;;;;;;18.50;100.00;100295.09;5031235;28;20621;-63
2023/09/29 06:28:02;;;;;;;9.97;6.63;;;;;;;19.68;100.00;100284.91;5038319;28;20257;-64
2023/09/29 06:30:27;;;;;;;10.67;6.60;;;;;;;20.14;100.00;100296.44;5029719;28;20239;-64
2023/09/29 06:32:52;;;;;;;7.20;6.17;;;;;;;19.95;100.00;100286.84;5037142;28;20207;-65
2023/09/29 06:35:18;;;;;;;9.73;7.37;;;;;;;19.75;100.00;100285.19;5031197;28;20208;-65
2023/09/29 06:37:43;;;;;;;8.10;6.80;;;;;;;19.61;100.00;100276.81;5041680;28;20177;-65
2023/09/29 06:40:10;;;;;;;22.03;7.93;;;;;;;19.39;100.00;100280.53;5037655;28;20256;-65
2023/09/29 06:42:36;;;;;;;15.10;8.03;;;;;;;18.83;100.00;100281.94;5032263;28;20181;-64
2023/09/29 06:45:02;;;;;;;14.83;8.20;;;;;;;18.77;100.00;100279.84;5063480;28;20177;-65
2023/09/29 06:47:28;;;;;;;13.50;8.83;;;;;;;18.96;100.00;100277.31;5058171;28;20549;-64
2023/09/29 06:49:53;;;;;;;14.40;8.93;;;;;;;19.60;100.00;100283.00;5048464;28;20173;-64
2023/09/29 06:52:18;;;;;;;13.73;8.47;;;;;;;20.89;100.00;100274.69;5046191;28;20711;-63
2023/09/29 06:54:43;;;;;;;12.93;7.87;;;;;;;22.16;100.00;100274.63;5049972;28;20204;-66
2023/09/29 06:57:09;;;;;;;13.27;8.80;;;;;;;22.02;100.00;100276.81;5050172;28;20181;-65
2023/09/29 06:59:34;;;;;;;13.37;9.13;;;;;;;21.20;100.00;100271.75;5051254;28;20185;-64
2023/09/29 07:01:59;;;;;;;15.00;8.47;;;;;;;20.77;100.00;100270.63;5054945;28;20691;-63
2023/09/29 07:04:25;;;;;;;18.00;10.60;;;;;;;20.52;100.00;100259.84;4995153;28;20439;-64
2023/09/29 07:06:50;;;;;;;14.23;11.40;;;;;;;20.61;100.00;100274.66;4845606;28;20455;-65
2023/09/29 07:09:15;;;;;;;12.97;9.63;;;;;;;20.35;100.00;100264.03;5049824;28;20181;-65
2023/09/29 07:11:41;;;;;;;15.40;9.40;;;;;;;19.28;100.00;100263.22;5061876;28;20231;-64
2023/09/29 07:14:07;;;;;;;16.60;10.63;;;;;;;19.11;100.00;100266.50;5053838;28;20193;-66
2023/09/29 07:16:32;;;;;;;20.43;11.03;;;;;;;19.47;100.00;100264.19;5051023;28;20184;-64
2023/09/29 07:18:57;;;;;;;24.50;9.70;;;;;;;19.98;100.00;100260.47;5049845;28;20276;-64
2023/09/29 07:21:23;;;;;;;13.97;9.30;;;;;;;20.23;100.00;100257.34;5049699;28;20244;-66
2023/09/29 07:23:48;;;;;;;12.77;8.87;;;;;;;20.15;100.00;100255.47;5050204;28;20251;-65
2023/09/29 07:26:13;;;;;;;15.03;9.27;;;;;;;19.96;100.00;100254.53;5056588;28;20200;-67
2023/09/29 07:28:40;;;;;;;13.97;8.63;;;;;;;20.08;100.00;100246.53;5057639;28;20185;-66
2023/09/29 07:31:05;;;;;;;11.43;8.80;;;;;;;20.30;100.00;100245.38;5027478;28;20220;-64
2023/09/29 07:33:30;;;;;;;15.57;8.43;;;;;;;20.21;100.00;100257.50;5056190;28;20265;-59
2023/09/29 07:35:56;;;;;;;10.63;8.20;;;;;;;20.16;100.00;100251.88;5054089;28;20212;-62
2023/09/29 07:38:21;;;;;;;12.00;8.03;;;;;;;19.44;100.00;100249.63;5062099;28;20185;-63
2023/09/29 07:40:47;;;;;;;11.30;8.67;;;;;;;19.32;100.00;100245.53;5042691;28;20316;-62
2023/09/29 07:43:12;;;;;;;13.00;7.03;;;;;;;19.50;100.00;100241.25;5068556;28;20212;-63
2023/09/29 07:45:37;;;;;;;8.50;6.80;;;;;;;19.81;100.00;100243.69;5058569;28;20215;-63
2023/09/29 07:48:03;;;;;;;10.10;6.90;;;;;;;19.30;100.00;100239.59;5055786;28;20185;-63
2023/09/29 07:50:28;;;;;;;7.93;7.03;;;;;;;19.65;100.00;100238.22;5047891;28;20224;-64
2023/09/29 07:52:53;;;;;;;11.00;7.03;;;;;;;20.11;100.00;100251.50;5055812;28;20592;-64
2023/09/29 07:55:19;;;;;;;9.23;6.43;;;;;;;20.42;100.00;100253.88;5062788;28;20307;-62
2023/09/29 07:57:44;;;;;;;12.97;6.53;;;;;;;21.17;100.00;100251.09;5038642;28;20197;-63
2023/09/29 08:00:10;;;;;;;10.43;6.60;;;;;;;21.31;100.00;100254.16;5053385;28;20173;-61
2023/09/29 08:02:36;;;;;;;8.50;6.37;;;;;;;21.05;100.00;100254.91;5055980;28;20184;-61
2023/09/29 08:05:01;;;;;;;8.40;5.80;;;;;;;20.83;100.00;100246.53;5055050;28;20606;-61
2023/09/29 08:07:27;;;;;;;7.17;6.47;;;;;;;20.71;100.00;100251.13;5055806;28;20185;-61
2023/09/29 08:09:53;;;;;;;10.87;6.40;;;;;;;20.80;100.00;100260.72;5063542;28;20550;-61
2023/09/29 08:12:19;;;;;;;9.37;6.07;;;;;;;20.84;100.00;100268.25;5043310;28;20238;-61
2023/09/29 08:14:44;;;;;;;11.27;6.50;;;;;;;20.99;100.00;100276.41;5060903;28;20216;-62
2023/09/29 08:17:09;;;;;;;11.57;6.10;;;;;;;21.25;100.00;100276.53;5064281;28;20173;-61
2023/09/29 08:19:35;;;;;;;7.83;6.80;;;;;;;21.26;100.00;100284.22;5054437;28;20185;-62
2023/09/29 08:22:00;;;;;;;9.43;6.37;;;;;;;21.55;100.00;100280.53;5057594;28;20267;-63
2023/09/29 08:24:26;;;;;;;8.30;6.37;;;;;;;21.86;100.00;100281.97;5053040;28;20274;-63
2023/09/29 08:26:51;;;;;;;7.40;5.93;;;;;;;21.82;100.00;100284.06;5059155;28;20185;-61
2023/09/29 08:29:16;;;;;;;7.10;6.33;;;;;;;21.34;100.00;100278.25;5059388;28;20182;-62
2023/09/29 08:31:43;;;;;;;7.03;6.30;;;;;;;21.60;100.00;100280.13;5054288;28;20254;-62
2023/09/29 08:34:08;;;;;;;10.87;6.93;;;;;;;21.56;100.00;100274.38;5046757;28;20549;-62
2023/09/29 08:36:33;;;;;;;9.43;6.40;;;;;;;21.78;100.00;100274.88;5052088;28;20182;-61
2023/09/29 08:38:59;;;;;;;7.97;6.07;;;;;;;21.64;100.00;100278.03;5061494;28;20211;-63
2023/09/29 08:41:29;;;;;;;8.23;6.00;;;;;;;21.92;100.00;100279.53;5051937;28;20632;-64
2023/09/29 08:43:54;;;;;;;11.27;6.10;;;;;;;22.51;100.00;100275.47;5058247;28;20251;-63
2023/09/29 08:46:20;;;;;;;6.83;5.80;;;;;;;22.70;100.00;100279.66;5053703;28;20185;-62
2023/09/29 08:48:47;;;;;;;10.03;6.20;;;;;;;23.29;100.00;100278.81;5053844;28;20173;-63
2023/09/29 08:51:13;;;;;;;8.50;6.03;;;;;;;24.06;100.00;100288.97;5048469;28;20225;-62
2023/09/29 08:53:40;;;;;;;12.45;5.63;;;;;;;24.40;100.00;100282.66;5070661;28;20536;-62
2023/09/29 08:56:11;;;;;;;12.52;6.38;;;;;;;24.00;100.00;100289.66;5056474;28;20202;-63
2023/09/29 08:58:37;;;;;;;8.52;6.32;;;;;;;24.81;100.00;100268.53;5034045;28;20505;-62
2023/09/29 09:01:03;;;;;;;8.88;6.18;;;;;;;24.70;100.00;100261.03;5037109;28;20224;-62
2023/09/29 09:03:28;;;;;;;8.88;5.82;;;;;;;24.99;100.00;100265.63;5040556;28;20232;-63
2023/09/29 09:05:55;;;;;;;5.88;5.25;;;;;;;25.49;100.00;100263.50;5055562;28;20185;-68
2023/09/29 09:08:21;;;;;;;7.60;5.00;;;;;;;25.78;100.00;100272.44;5052103;28;20496;-67
2023/09/29 09:10:46;;;;;;;6.80;5.47;;;;;;;24.87;100.00;100259.13;5048484;28;20217;-67
2023/09/29 09:13:11;;;;;;;7.13;4.97;;;;;;;25.42;100.00;100260.72;5062967;28;20185;-67
2023/09/29 09:15:37;;;;;;;8.95;4.50;;;;;;;25.58;100.00;100259.78;5051779;28;20205;-70
2023/09/29 09:18:03;;;;;;;10.50;5.03;;;;;;;25.26;100.00;100245.84;5052511;28;20219;-68
2023/09/29 09:20:29;;;;;;;6.30;5.68;;;;;;;24.74;100.00;100236.03;5032393;28;20752;-67
2023/09/29 09:23:01;;;;;;;8.90;4.78;;;;;;;24.71;100.00;100245.09;5052762;28;20222;-68
2023/09/29 09:25:46;;;;;;;11.30;4.63;;;;;;;24.84;100.00;100241.88;5048555;28;20295;-69
2023/09/29 09:28:16;;;;;;;12.32;5.07;;;;;;;24.56;100.00;100247.59;5053087;28;20585;-67
2023/09/29 09:30:42;;;;;;;7.32;4.88;;;;;;;24.76;100.00;100257.72;5052981;28;20220;-68
2023/09/29 09:33:17;;;;;;;6.88;5.03;;;;;;;24.71;100.00;100250.34;5078143;28;20188;-68
2023/09/29 09:35:43;;;;;;;5.20;4.07;;;;;;;25.28;100.00;100250.97;5052613;28;20197;-69
2023/09/29 09:38:08;;;;;;;7.47;4.50;;;;;;;25.82;100.00;100251.84;5052992;28;20192;-68
2023/09/29 09:40:34;;;;;;;7.68;4.63;;;;;;;26.63;100.00;100243.16;5062451;28;20232;-68
2023/09/29 09:43:02;;;;;;;7.05;4.30;;;;;;;27.66;91.22;100246.41;5070755;28;20233;-68
2023/09/29 09:45:39;;;;;;;6.60;4.30;;;;;;;27.91;90.47;100250.41;5067362;28;20190;-69
2023/09/29 09:48:06;;;;;;;6.72;3.90;;;;;;;28.01;90.80;100242.97;5052891;28;20205;-69
2023/09/29 09:50:33;;;;;;;8.98;4.72;;;;;;;27.84;92.04;100247.72;5042311;28;20341;-67
2023/09/29 09:53:02;;;;;;;8.68;4.25;;;;;;;26.00;100.00;100240.91;5046239;28;20246;-68
2023/09/29 09:56:10;;;;;;;4.65;4.10;;;;;;;27.32;99.86;100241.84;5051823;28;20201;-68
2023/09/29 09:58:36;;;;;;;6.40;4.05;;;;;;;29.16;85.37;100250.25;5059721;28;20528;-67
2023/09/29 10:01:01;;;;;;;13.60;4.03;;;;;;;29.20;83.00;100259.44;5047988;28;20245;-67
2023/09/29 10:03:27;;;;;;;5.55;4.25;;;;;;;29.86;79.14;100264.94;5086160;28;20204;-68
2023/09/29 10:05:54;;;;;;;13.10;4.68;;;;;;;29.83;77.92;100265.34;5053981;28;20205;-68
2023/09/29 10:08:30;;;;;;;9.98;4.88;;;;;;;29.57;77.14;100259.88;5058732;28;20185;-68
2023/09/29 10:11:13;;;;;;;10.50;4.35;;;;;;;28.87;84.18;100262.84;5050148;28;20322;-59
2023/09/29 10:13:41;;;;;;;6.20;3.75;;;;;;;28.92;88.37;100260.41;5077795;28;20216;-60
2023/09/29 10:16:06;;;;;;;7.15;4.15;;;;;;;28.36;91.79;100269.38;5070146;28;20211;-60
2023/09/29 10:18:33;;;;;;;6.85;4.05;;;;;;;28.20;91.11;100264.44;5059296;28;20180;-60
2023/09/29 10:21:06;;;;;;;8.35;4.18;;;;;;;27.83;92.60;100264.59;5047194;28;20671;-60
2023/09/29 10:23:44;;;;;;;12.48;4.32;;;;;;;27.22;94.97;100253.53;5050586;28;20307;-59
2023/09/29 10:26:10;;;;;;;5.57;4.03;;;;;;;27.08;97.76;100249.16;5052067;28;20207;-60
2023/09/29 10:28:39;;;;;;;9.00;3.60;;;;;;;27.01;97.38;100246.44;5054130;28;20541;-60
2023/09/29 10:31:08;;;;;;;4.57;3.50;;;;;;;26.93;96.26;100243.09;5047234;28;20441;-60
2023/09/29 10:33:44;;;;;;;6.22;3.70;;;;;;;26.93;96.48;100245.72;5057442;28;20189;-60
2023/09/29 10:36:09;;;;;;;6.03;3.58;;;;;;;27.12;94.94;100244.31;5049236;28;20277;-60
2023/09/29 10:38:35;;;;;;;5.07;3.45;;;;;;;26.78;97.13;100232.59;5051728;28;20613;-60
2023/09/29 10:41:03;;;;;;;8.77;3.50;;;;;;;26.97;97.01;100233.81;5046043;28;20753;-61
2023/09/29 10:43:28;;;;;;;6.75;3.67;;;;;;;27.37;97.27;100237.59;5060620;28;20180;-60
2023/09/29 10:45:54;;;;;;;5.53;4.13;;;;;;;27.31;96.02;100234.91;5054707;28;20280;-61
2023/09/29 10:48:23;;;;;;;4.10;3.28;;;;;;;27.28;95.17;100230.84;5056849;28;20188;-61
2023/09/29 10:50:49;;;;;;;6.57;3.75;;;;;;;27.57;94.87;100233.53;5036905;28;20222;-60
2023/09/29 10:53:16;;;;;;;9.00;3.30;;;;;;;27.41;94.63;100245.19;5041838;28;20186;-60
2023/09/29 10:55:49;;;;;;;6.72;3.85;;;;;;;27.54;94.77;100245.28;5042978;28;20237;-61
2023/09/29 10:58:18;;;;;;;4.75;4.00;;;;;;;27.56;93.86;100235.34;5061483;28;20659;-60
2023/09/29 11:00:51;;;;;;;6.70;3.92;;;;;;;27.43;97.47;100230.78;5028751;28;20257;-59
2023/09/29 11:03:27;;;;;;;9.48;4.85;;;;;;;26.87;100.00;100239.41;5034299;28;20284;-59
2023/09/29 11:06:18;;;;;;;7.30;4.18;;;;;;;27.07;100.00;100239.59;5031257;28;20209;-60
2023/09/29 11:08:51;;;;;;;6.20;4.60;;;;;;;27.06;98.94;100237.94;5047379;28;20186;-60
2023/09/29 11:11:17;;;;;;;8.23;3.72;;;;;;;26.79;100.00;100237.69;5026944;28;20224;-60